createdAt,value
2023-04-01T00:01:33.659Z,13.41
2023-04-01T00:04:02.993Z,13.39
2023-04-01T00:06:30.741Z,13.42
2023-04-01T00:08:57.517Z,13.36
2023-04-01T00:11:24.590Z,13.35
2023-04-01T00:13:51.346Z,13.35
2023-04-01T00:16:22.396Z,13.39
2023-04-01T00:18:50.454Z,13.36
2023-04-01T00:21:17.990Z,13.35
2023-04-01T00:23:44.952Z,13.37
2023-04-01T00:26:13.439Z,13.33
2023-04-01T00:28:41.101Z,13.26
2023-04-01T00:31:08.994Z,13.25
2023-04-01T00:33:36.697Z,13.29
2023-04-01T00:36:20.411Z,13.26
2023-04-01T00:38:47.870Z,13.21
2023-04-01T00:41:16.269Z,13.21
2023-04-01T00:43:44.089Z,13.22
2023-04-01T00:46:11.230Z,13.23
2023-04-01T00:48:40.315Z,13.18
2023-04-01T00:51:12.991Z,13.14
2023-04-01T00:53:42.208Z,13.13
2023-04-01T00:56:33.808Z,13.12
2023-04-01T00:59:06.770Z,13.13
2023-04-01T01:01:33.865Z,13.14
2023-04-01T01:04:01.176Z,13.12
2023-04-01T01:06:40.024Z,13.12
2023-04-01T01:09:34.083Z,13.10
2023-04-01T01:12:27.221Z,13.13
2023-04-01T01:15:18.747Z,13.11
2023-04-01T01:17:48.882Z,13.10
2023-04-01T01:20:39.135Z,13.09
2023-04-01T01:23:30.866Z,13.09
2023-04-01T01:26:45.470Z,13.07
2023-04-01T01:29:12.540Z,13.06
2023-04-01T01:31:42.195Z,13.06
2023-04-01T01:34:21.235Z,13.04
2023-04-01T01:36:49.887Z,13.05
2023-04-01T01:39:16.969Z,13.04
2023-04-01T01:41:43.752Z,13.04
2023-04-01T01:44:12.141Z,13.02
2023-04-01T01:46:39.232Z,13.01
2023-04-01T01:49:06.320Z,12.98
2023-04-01T01:51:33.112Z,12.98
2023-04-01T01:54:00.267Z,12.99
2023-04-01T01:56:28.217Z,12.94
2023-04-01T01:58:57.829Z,12.96
2023-04-01T02:01:26.879Z,12.95
2023-04-01T02:03:54.083Z,12.92
2023-04-01T02:06:22.978Z,12.92
2023-04-01T02:09:00.496Z,12.89
2023-04-01T02:11:30.148Z,12.90
2023-04-01T02:14:27.679Z,12.88
2023-04-01T02:17:08.623Z,12.84
2023-04-01T02:19:39.358Z,12.85
2023-04-01T02:22:09.200Z,12.85
2023-04-01T02:24:36.422Z,12.85
2023-04-01T02:27:03.249Z,12.83
2023-04-01T02:29:30.404Z,12.79
2023-04-01T02:31:57.234Z,12.80
2023-04-01T02:34:24.501Z,12.78
2023-04-01T02:36:51.611Z,12.77
2023-04-01T02:39:18.826Z,12.79
2023-04-01T02:41:45.835Z,12.81
2023-04-01T02:44:13.901Z,12.78
2023-04-01T02:46:40.888Z,12.76
2023-04-01T02:49:07.965Z,12.79
2023-04-01T02:51:34.850Z,12.74
2023-04-01T02:54:01.986Z,12.74
2023-04-01T02:56:28.799Z,12.78
2023-04-01T02:58:56.002Z,12.77
2023-04-01T03:01:22.879Z,12.75
2023-04-01T03:03:50.487Z,12.74
2023-04-01T03:06:17.345Z,12.78
2023-04-01T03:08:44.706Z,12.75
2023-04-01T03:11:11.943Z,12.72
2023-04-01T03:13:39.112Z,12.73
2023-04-01T03:16:06.366Z,12.75
2023-04-01T03:18:33.506Z,12.68
2023-04-01T03:21:14.218Z,12.69
2023-04-01T03:23:41.382Z,12.70
2023-04-01T03:26:08.092Z,12.66
2023-04-01T03:28:35.347Z,12.70
2023-04-01T03:31:02.318Z,12.66
2023-04-01T03:33:29.519Z,12.66
2023-04-01T03:35:56.473Z,12.67
2023-04-01T03:38:23.538Z,12.66
2023-04-01T03:40:50.451Z,12.65
2023-04-01T03:43:17.788Z,12.66
2023-04-01T03:45:48.480Z,12.66
2023-04-01T03:48:15.988Z,12.61
2023-04-01T03:50:42.789Z,12.66
2023-04-01T03:53:10.097Z,12.64
2023-04-01T03:55:37.241Z,12.59
2023-04-01T03:58:05.576Z,12.63
2023-04-01T04:00:32.481Z,12.64
2023-04-01T04:02:59.808Z,12.60
2023-04-01T04:05:26.945Z,12.60
2023-04-01T04:07:54.153Z,12.60
2023-04-01T04:10:21.084Z,12.58
2023-04-01T04:12:48.122Z,12.54
2023-04-01T04:15:14.928Z,12.57
2023-04-01T04:17:42.325Z,12.57
2023-04-01T04:20:09.794Z,12.59
2023-04-01T04:22:36.943Z,12.56
2023-04-01T04:25:03.901Z,12.54
2023-04-01T04:27:31.076Z,12.56
2023-04-01T04:29:57.837Z,12.58
2023-04-01T04:32:24.953Z,12.59
2023-04-01T04:34:51.720Z,12.60
2023-04-01T04:37:18.805Z,12.57
2023-04-01T04:39:45.545Z,12.53
2023-04-01T04:42:12.602Z,12.51
2023-04-01T04:44:40.409Z,12.49
2023-04-01T04:47:07.628Z,12.49
2023-04-01T04:49:34.584Z,12.49
2023-04-01T04:52:01.650Z,12.49
2023-04-01T04:54:28.371Z,12.48
2023-04-01T04:56:55.448Z,12.46
2023-04-01T04:59:22.288Z,12.52
2023-04-01T05:01:49.453Z,12.50
2023-04-01T05:04:16.325Z,12.50
2023-04-01T05:06:44.003Z,12.47
2023-04-01T05:09:10.857Z,12.50
2023-04-01T05:11:37.921Z,12.48
2023-04-01T05:14:04.680Z,12.47
2023-04-01T05:16:32.568Z,12.48
2023-04-01T05:18:59.360Z,12.50
2023-04-01T05:21:26.535Z,12.50
2023-04-01T05:23:53.315Z,12.49
2023-04-01T05:26:20.410Z,12.53
2023-04-01T05:28:47.139Z,12.49
2023-04-01T05:31:14.372Z,12.52
2023-04-01T05:33:41.110Z,12.54
2023-04-01T05:36:17.316Z,12.53
2023-04-01T05:38:44.764Z,12.53
2023-04-01T05:41:11.873Z,12.54
2023-04-01T05:43:38.954Z,12.56
2023-04-01T05:46:06.086Z,12.56
2023-04-01T05:48:34.316Z,12.57
2023-04-01T05:51:01.919Z,12.57
2023-04-01T05:53:28.692Z,12.57
2023-04-01T05:55:55.800Z,12.59
2023-04-01T05:58:22.582Z,12.59
2023-04-01T06:00:59.057Z,12.60
2023-04-01T06:03:32.932Z,12.65
2023-04-01T06:06:02.098Z,12.68
2023-04-01T06:08:29.205Z,12.69
2023-04-01T06:11:19.350Z,12.71
2023-04-01T06:14:01.686Z,12.71
2023-04-01T06:17:13.584Z,12.73
2023-04-01T06:19:54.685Z,12.74
2023-04-01T06:22:48.900Z,12.78
2023-04-01T06:25:44.816Z,12.78
2023-04-01T06:28:35.887Z,12.74
2023-04-01T06:31:08.862Z,12.75
2023-04-01T06:33:43.648Z,12.80
2023-04-01T06:36:21.058Z,12.83
2023-04-01T06:39:26.406Z,12.81
2023-04-01T06:42:14.074Z,12.85
2023-04-01T06:45:04.424Z,12.88
2023-04-01T06:47:49.418Z,12.89
2023-04-01T06:50:34.652Z,12.92
2023-04-01T06:53:07.453Z,12.94
2023-04-01T06:55:53.046Z,13.02
2023-04-01T06:58:24.811Z,13.04
2023-04-01T07:00:57.736Z,13.01
2023-04-01T07:03:30.466Z,13.01
2023-04-01T07:06:09.572Z,13.03
2023-04-01T07:08:37.860Z,13.03
2023-04-01T07:11:06.411Z,13.11
2023-04-01T07:13:42.080Z,13.09
2023-04-01T07:16:18.268Z,13.12
2023-04-01T07:18:51.596Z,13.16
2023-04-01T07:21:36.785Z,13.15
2023-04-01T07:24:10.230Z,13.14
2023-04-01T07:26:37.332Z,13.18
2023-04-01T07:29:07.221Z,13.24
2023-04-01T07:31:40.558Z,13.22
2023-04-01T07:34:35.398Z,13.24
2023-04-01T07:37:24.597Z,13.29
2023-04-01T07:40:07.586Z,13.33
2023-04-01T07:42:50.170Z,13.34
2023-04-01T07:45:23.500Z,13.36
2023-04-01T07:47:53.600Z,13.39
2023-04-01T07:50:43.050Z,13.35
2023-04-01T07:53:19.232Z,13.45
2023-04-01T07:56:06.483Z,13.47
2023-04-01T07:58:45.716Z,13.48
2023-04-01T08:01:21.758Z,13.48
2023-04-01T08:03:59.326Z,13.45
2023-04-01T08:06:37.728Z,13.50
2023-04-01T08:09:20.457Z,13.55
2023-04-01T08:15:08.893Z,13.55
2023-04-01T08:18:06.721Z,13.58
2023-04-01T08:21:11.486Z,13.64
2023-04-01T08:23:39.588Z,13.66
2023-04-01T08:26:15.010Z,13.62
2023-04-01T08:28:52.898Z,13.65
2023-04-01T08:31:21.245Z,13.71
2023-04-01T08:33:48.304Z,13.71
2023-04-01T08:36:22.150Z,13.69
2023-04-01T08:39:11.802Z,13.73
2023-04-01T08:41:57.197Z,13.81
2023-04-01T08:44:43.185Z,13.86
2023-04-01T08:47:32.444Z,13.85
2023-04-01T08:50:20.894Z,13.88
2023-04-01T08:52:54.044Z,13.92
2023-04-01T08:55:26.007Z,13.91
2023-04-01T08:58:30.910Z,13.92
2023-04-01T09:01:06.606Z,13.99
2023-04-01T09:03:45.953Z,13.99
2023-04-01T09:06:41.935Z,14.04
2023-04-01T09:09:12.064Z,14.02
2023-04-01T09:12:16.419Z,14.03
2023-04-01T09:14:52.677Z,14.04
2023-04-01T09:17:28.280Z,14.04
2023-04-01T09:20:01.590Z,14.09
2023-04-01T09:22:48.621Z,14.13
2023-04-01T09:25:47.662Z,14.12
2023-04-01T09:28:18.785Z,14.11
2023-04-01T09:30:59.304Z,14.16
2023-04-01T09:33:47.414Z,14.16
2023-04-01T09:36:49.026Z,14.22
2023-04-01T09:39:24.651Z,14.28
2023-04-01T09:42:11.951Z,14.31
2023-04-01T09:44:42.978Z,14.35
2023-04-01T09:47:28.504Z,14.39
2023-04-01T09:50:27.455Z,14.40
2023-04-01T09:53:29.901Z,14.43
2023-04-01T09:56:21.122Z,14.46
2023-04-01T09:59:29.720Z,14.54
2023-04-01T10:02:15.389Z,14.59
2023-04-01T10:04:50.589Z,14.63
2023-04-01T10:07:29.720Z,14.69
2023-04-01T10:10:20.408Z,14.79
2023-04-01T10:13:15.492Z,14.84
2023-04-01T10:15:42.584Z,14.88
2023-04-01T10:18:56.987Z,15.02
2023-04-01T10:21:40.005Z,15.06
2023-04-01T10:24:31.635Z,15.15
2023-04-01T10:27:14.977Z,15.21
2023-04-01T10:29:44.717Z,15.22
2023-04-01T10:32:49.651Z,15.28
2023-04-01T10:35:38.273Z,15.29
2023-04-01T10:38:20.715Z,15.39
2023-04-01T10:41:07.404Z,15.51
2023-04-01T10:43:43.592Z,15.65
2023-04-01T10:46:16.469Z,15.68
2023-04-01T10:48:56.501Z,15.74
2023-04-01T10:51:49.797Z,15.75
2023-04-01T10:54:47.762Z,15.79
2023-04-01T10:57:33.166Z,15.87
2023-04-01T11:00:00.310Z,15.93
2023-04-01T11:02:58.281Z,15.98
2023-04-01T11:05:52.782Z,16.04
2023-04-01T11:08:40.633Z,16.07
2023-04-01T11:11:46.261Z,16.11
2023-04-01T11:14:42.446Z,16.17
2023-04-01T11:17:31.593Z,16.14
2023-04-01T11:20:04.694Z,16.18
2023-04-01T11:22:59.654Z,16.18
2023-04-01T11:25:31.433Z,16.21
2023-04-01T11:28:25.094Z,16.32
2023-04-01T11:31:13.062Z,16.38
2023-04-01T11:34:16.645Z,16.42
2023-04-01T11:37:03.702Z,16.54
2023-04-01T11:40:07.168Z,16.52
2023-04-01T11:43:01.525Z,16.61
2023-04-01T11:45:41.382Z,16.61
2023-04-01T11:48:23.221Z,16.68
2023-04-01T11:51:11.589Z,16.72
2023-04-01T11:54:09.103Z,16.75
2023-04-01T11:56:57.452Z,16.81
2023-04-01T11:59:46.030Z,16.80
2023-04-01T12:02:33.374Z,16.84
2023-04-01T12:05:09.526Z,16.93
2023-04-01T12:07:54.606Z,16.96
2023-04-01T12:10:33.749Z,16.98
2023-04-01T12:13:20.080Z,17.05
2023-04-01T12:16:05.987Z,17.08
2023-04-01T12:19:11.646Z,17.10
2023-04-01T12:21:53.516Z,17.16
2023-04-01T12:24:39.566Z,17.21
2023-04-01T12:27:24.594Z,17.25
2023-04-01T12:30:00.846Z,17.29
2023-04-01T12:32:42.849Z,17.31
2023-04-01T12:35:19.546Z,17.26
2023-04-01T12:38:12.200Z,17.35
2023-04-01T12:40:58.137Z,17.38
2023-04-01T12:43:27.672Z,17.39
2023-04-01T12:46:09.793Z,17.41
2023-04-01T12:48:43.897Z,17.41
2023-04-01T12:51:32.782Z,17.46
2023-04-01T12:54:10.112Z,17.48
2023-04-01T12:56:52.336Z,17.52
2023-04-01T12:59:38.568Z,17.51
2023-04-01T13:02:24.273Z,17.52
2023-04-01T13:04:56.994Z,17.49
2023-04-01T13:07:35.734Z,17.37
2023-04-01T13:10:44.114Z,17.34
2023-04-01T13:13:53.900Z,17.35
2023-04-01T13:16:25.507Z,17.36
2023-04-01T13:19:01.730Z,17.31
2023-04-01T13:21:44.812Z,17.36
2023-04-01T13:24:44.581Z,17.44
2023-04-01T13:27:20.398Z,17.40
2023-04-01T13:30:31.953Z,17.36
2023-04-01T13:33:36.022Z,17.42
2023-04-01T13:36:19.434Z,17.41
2023-04-01T13:38:46.430Z,17.41
2023-04-01T13:41:41.725Z,17.43
2023-04-01T13:44:32.189Z,17.43
2023-04-01T13:47:24.025Z,17.40
2023-04-01T13:50:13.905Z,17.36
2023-04-01T13:53:03.140Z,17.38
2023-04-01T13:55:48.358Z,17.31
2023-04-01T13:58:48.038Z,17.29
2023-04-01T14:01:32.369Z,17.30
2023-04-01T14:04:21.191Z,17.31
2023-04-01T14:07:01.966Z,17.29
2023-04-01T14:09:50.388Z,17.27
2023-04-01T14:12:35.663Z,17.26
2023-04-01T14:15:35.335Z,17.32
2023-04-01T14:18:25.023Z,17.36
2023-04-01T14:21:21.394Z,17.31
2023-04-01T14:23:57.376Z,17.27
2023-04-01T14:27:03.479Z,17.33
2023-04-01T14:29:36.645Z,17.35
2023-04-01T14:32:34.459Z,17.34
2023-04-01T14:35:15.829Z,17.34
2023-04-01T14:38:01.263Z,17.36
2023-04-01T14:40:30.125Z,17.38
2023-04-01T14:43:09.009Z,17.32
2023-04-01T14:46:12.807Z,17.35
2023-04-01T14:48:49.526Z,17.42
2023-04-01T14:51:18.002Z,17.42
2023-04-01T14:54:04.301Z,17.35
2023-04-01T14:56:52.248Z,17.34
2023-04-01T14:59:22.478Z,17.35
2023-04-01T15:02:08.175Z,17.34
2023-04-01T15:04:39.729Z,17.36
2023-04-01T15:07:06.688Z,17.38
2023-04-01T15:09:55.116Z,17.36
2023-04-01T15:12:31.356Z,17.37
2023-04-01T15:15:19.756Z,17.36
2023-04-01T15:18:05.285Z,17.32
2023-04-01T15:20:32.379Z,17.31
2023-04-01T15:23:14.578Z,17.29
2023-04-01T15:25:44.760Z,17.25
2023-04-01T15:28:33.522Z,17.23
2023-04-01T15:31:15.613Z,17.20
2023-04-01T15:34:08.412Z,17.18
2023-04-01T15:37:03.521Z,17.15
2023-04-01T15:39:36.365Z,17.13
2023-04-01T15:42:22.062Z,17.10
2023-04-01T15:45:07.322Z,17.09
2023-04-01T15:48:00.186Z,17.06
2023-04-01T15:50:55.525Z,17.05
2023-04-01T15:53:25.655Z,17.00
2023-04-01T15:56:00.558Z,17.03
2023-04-01T15:58:52.536Z,17.00
2023-04-01T16:01:35.664Z,16.98
2023-04-01T16:04:14.954Z,16.96
2023-04-01T16:06:54.112Z,17.02
2023-04-01T16:09:46.319Z,16.97
2023-04-01T16:12:13.149Z,16.97
2023-04-01T16:15:04.382Z,16.96
2023-04-01T16:17:39.967Z,16.96
2023-04-01T16:20:19.085Z,16.93
2023-04-01T16:23:03.764Z,16.93
2023-04-01T16:25:37.225Z,16.93
2023-04-01T16:28:13.076Z,16.90
2023-04-01T16:30:45.350Z,16.87
2023-04-01T16:33:29.063Z,16.89
2023-04-01T16:36:35.430Z,16.85
2023-04-01T16:39:17.122Z,16.83
2023-04-01T16:41:50.983Z,16.82
2023-04-01T16:44:25.467Z,16.79
2023-04-01T16:47:08.830Z,16.79
2023-04-01T16:49:45.516Z,16.76
2023-04-01T16:52:12.855Z,16.73
2023-04-01T16:55:01.395Z,16.71
2023-04-01T16:57:29.668Z,16.69
2023-04-01T17:00:15.215Z,16.67
2023-04-01T17:02:52.443Z,16.65
2023-04-01T17:05:19.515Z,16.64
2023-04-01T17:07:55.921Z,16.61
2023-04-01T17:10:41.374Z,16.58
2023-04-01T17:13:17.796Z,16.55
2023-04-01T17:15:53.831Z,16.53
2023-04-01T17:18:39.359Z,16.50
2023-04-01T17:21:08.885Z,16.48
2023-04-01T17:24:11.105Z,16.44
2023-04-01T17:26:39.428Z,16.41
2023-04-01T17:29:16.570Z,16.39
2023-04-01T17:32:12.726Z,16.35
2023-04-01T17:34:39.832Z,16.32
2023-04-01T17:37:10.851Z,16.29
2023-04-01T17:39:56.435Z,16.22
2023-04-01T17:42:24.239Z,16.18
2023-04-01T17:45:20.494Z,16.14
2023-04-01T17:48:04.694Z,16.11
2023-04-01T17:50:37.368Z,16.05
2023-04-01T17:53:14.383Z,16.03
2023-04-01T17:56:00.089Z,16.02
2023-04-01T17:58:30.997Z,15.98
2023-04-01T18:00:59.698Z,15.98
2023-04-01T18:03:45.816Z,15.98
2023-04-01T18:06:21.098Z,15.96
2023-04-01T18:09:02.926Z,15.93
2023-04-01T18:12:06.201Z,15.93
2023-04-01T18:15:07.461Z,15.90
2023-04-01T18:18:02.351Z,15.88
2023-04-01T18:20:38.172Z,15.88
2023-04-01T18:23:28.248Z,15.81
2023-04-01T18:25:56.734Z,15.83
2023-04-01T18:28:39.717Z,15.75
2023-04-01T18:31:20.462Z,15.74
2023-04-01T18:33:53.603Z,15.68
2023-04-01T18:36:26.139Z,15.66
2023-04-01T18:39:41.724Z,15.64
2023-04-01T18:42:26.539Z,15.56
2023-04-01T18:44:57.266Z,15.53
2023-04-01T18:47:51.712Z,15.51
2023-04-01T18:50:38.930Z,15.50
2023-04-01T18:53:43.893Z,15.46
2023-04-01T18:56:12.302Z,15.45
2023-04-01T18:58:51.714Z,15.45
2023-04-01T19:01:41.326Z,15.39
2023-04-01T19:04:31.853Z,15.39
2023-04-01T19:07:01.526Z,15.41
2023-04-01T19:09:29.328Z,15.35
2023-04-01T19:12:08.794Z,15.29
2023-04-01T19:14:47.787Z,15.27
2023-04-01T19:18:08.807Z,15.27
2023-04-01T19:20:38.505Z,15.26
2023-04-01T19:23:27.344Z,15.24
2023-04-01T19:25:59.634Z,15.24
2023-04-01T19:28:41.522Z,15.24
2023-04-01T19:31:41.628Z,15.20
2023-04-01T19:34:39.899Z,15.18
2023-04-01T19:37:12.934Z,15.17
2023-04-01T19:40:17.787Z,15.13
2023-04-01T19:42:50.438Z,15.12
2023-04-01T19:45:31.447Z,15.10
2023-04-01T19:48:39.458Z,15.09
2023-04-01T19:51:06.784Z,15.06
2023-04-01T19:54:00.736Z,14.99
2023-04-01T19:56:38.800Z,14.99
2023-04-01T19:59:20.080Z,14.97
2023-04-01T20:01:59.278Z,14.94
2023-04-01T20:04:57.299Z,14.94
2023-04-01T20:07:38.872Z,14.92
2023-04-01T20:10:15.953Z,14.90
2023-04-01T20:13:20.443Z,14.90
2023-04-01T20:16:09.049Z,14.89
2023-04-01T20:18:48.330Z,14.84
2023-04-01T20:21:30.307Z,14.84
2023-04-01T20:24:02.921Z,14.84
2023-04-01T20:26:37.700Z,14.81
2023-04-01T20:29:23.162Z,14.79
2023-04-01T20:32:05.169Z,14.78
2023-04-01T20:34:52.161Z,14.76
2023-04-01T20:37:45.022Z,14.75
2023-04-01T20:40:42.094Z,14.73
2023-04-01T20:43:18.676Z,14.72
2023-04-01T20:46:00.753Z,14.70
2023-04-01T20:48:55.198Z,14.69
2023-04-01T20:51:44.495Z,14.69
2023-04-01T20:54:49.111Z,14.68
2023-04-01T20:57:33.303Z,14.66
2023-04-01T21:00:35.530Z,14.62
2023-04-01T21:03:13.506Z,14.61
2023-04-01T21:05:49.514Z,14.61
2023-04-01T21:08:53.059Z,14.60
2023-04-01T21:11:19.885Z,14.58
2023-04-01T21:13:53.135Z,14.57
2023-04-01T21:16:41.856Z,14.54
2023-04-01T21:19:27.888Z,14.54
2023-04-01T21:22:14.853Z,14.54
2023-04-01T21:25:19.343Z,14.53
2023-04-01T21:27:58.951Z,14.51
2023-04-01T21:30:29.206Z,14.51
2023-04-01T21:33:45.784Z,14.47
2023-04-01T21:36:20.574Z,14.44
2023-04-01T21:39:44.773Z,14.45
2023-04-01T21:42:14.470Z,14.46
2023-04-01T21:44:47.369Z,14.46
2023-04-01T21:47:29.785Z,14.44
2023-04-01T21:50:21.244Z,14.42
2023-04-01T21:53:21.078Z,14.39
2023-04-01T21:56:23.562Z,14.38
2023-04-01T21:59:09.000Z,14.38
2023-04-01T22:01:49.625Z,14.36
2023-04-01T22:04:31.836Z,14.35
2023-04-01T22:07:03.465Z,14.35
2023-04-01T22:09:58.772Z,14.33
2023-04-01T22:12:35.002Z,14.32
2023-04-01T22:15:05.271Z,14.29
2023-04-01T22:17:47.691Z,14.32
2023-04-01T22:20:20.498Z,14.26
2023-04-01T22:23:34.110Z,14.28
2023-04-01T22:26:35.384Z,14.26
2023-04-01T22:29:08.989Z,14.26
2023-04-01T22:31:52.822Z,14.25
2023-04-01T22:34:44.397Z,14.25
2023-04-01T22:37:38.530Z,14.23
2023-04-01T22:40:43.489Z,14.22
2023-04-01T22:43:16.511Z,14.18
2023-04-01T22:45:58.129Z,14.20
2023-04-01T22:48:48.846Z,14.18
2023-04-01T22:52:09.578Z,14.16
2023-04-01T22:54:45.002Z,14.16
2023-04-01T22:57:14.770Z,14.15
2023-04-01T22:59:43.599Z,14.14
2023-04-01T23:02:23.109Z,14.12
2023-04-01T23:04:54.629Z,14.12
2023-04-01T23:07:50.668Z,14.09
2023-04-01T23:10:26.235Z,14.08
2023-04-01T23:12:53.811Z,14.10
2023-04-01T23:15:20.935Z,14.07
2023-04-01T23:18:23.544Z,14.09
2023-04-01T23:20:56.705Z,14.06
2023-04-01T23:23:30.846Z,14.05
2023-04-01T23:26:04.096Z,14.03
2023-04-01T23:28:33.908Z,14.02
2023-04-01T23:31:01.184Z,14.01
2023-04-01T23:33:31.444Z,14.02
2023-04-01T23:36:12.753Z,14.02
2023-04-01T23:38:42.751Z,14.01
2023-04-01T23:41:30.896Z,14.01
2023-04-01T23:44:06.661Z,13.98
2023-04-01T23:46:34.743Z,13.97
2023-04-01T23:49:02.292Z,13.99
2023-04-01T23:51:37.386Z,13.97
2023-04-01T23:54:25.577Z,13.98
2023-04-01T23:56:53.431Z,13.97
2023-04-01T23:59:24.415Z,13.96
